Steptoe Valley North, Nevada Weather observations

Data are for 10 minute period ending at time listed.
 Day   Time   Solar   Ave.   Ave.  Ave.  Vector  Max.   Baro.   Total    
  of    of     Rad.   Air    Rel.  Wind   Wind   Wind  Press.  Precip.   
Year   Day            Temp.  Hum.  Speed  Dir.   Gust                    
2014   (PST)  Kw/m2    F      %     mph   deg.    mph    mb.     in.     
-------------------------------------------------------------------------
 107   12:00   0.90   65.3    24   10.2   214    18.0   818.0    0.00 
 107   12:10   0.90   66.6    23   12.0   221    19.7   817.8    0.00 
 107   12:20   0.90   66.9    23   11.7   216    20.8   817.6    0.00 
 107   12:30   0.89   66.6    22   10.5   225    15.8   817.4    0.00 
 107   12:40   0.89   67.8    22   10.7   207    21.0   817.3    0.00 
 107   12:50   0.87   68.1    22   12.7   204    24.4   817.2    0.00 
 107   13:00   0.86   69.0    21   12.0   185    19.0   817.0    0.00 
 107   13:10   0.84   69.4    21   10.5   183    16.7   816.9    0.00 
 107   13:20   0.83   70.1    20   13.5   202    21.5   816.7    0.00 
 107   13:30   0.81   70.1    20   13.8   209    20.3   816.6    0.00 
 107   13:40   0.79   70.1    20   12.7   213    19.6   816.5    0.00 
 107   13:50   0.77   71.1    19   11.1   202    19.2   816.3    0.00 
 107   14:00   0.75   71.3    18   10.4   192    19.9   816.0    0.00 
 107   14:10   0.73   71.5    18    9.6   191    17.0   815.8    0.00 
 107   14:20   0.71   72.1    18   13.4   177    21.1   815.6    0.00 
 107   14:30   0.69   72.1    18   10.9   177    18.6   815.4    0.00 
 107   14:40   0.59   72.4    18   10.9   207    20.2   815.3    0.00 
 107   14:50   0.64   73.2    17   11.1   176    19.2   815.1    0.00 
 107   15:00   0.64   73.8    17   13.8   190    19.0   815.0    0.00 
 107   15:10   0.44   73.3    17   13.7   179    26.7   814.8    0.00 
 107   15:20   0.25   70.7    18   15.7   197    25.9   814.8    0.00 
 107   15:30   0.35   71.7    17   14.9   206    23.8   814.7    0.00 
 107   15:40   0.27   70.8    18   14.8   193    25.3   814.7    0.00 
 107   15:50   0.29   71.7    17   16.2   193    27.1   814.6    0.00 
 107   16:00   0.22   71.3    17   18.6   191    25.8   814.5    0.00 
 107   16:10   0.27   70.4    18   16.7   185    25.4   814.4    0.00 
 107   16:20   0.18   70.5    18   19.6   194    27.8   814.4    0.00 
 107   16:30   0.19   69.7    18   18.7   184    24.3   814.4    0.00 
 107   16:40   0.17   69.8    17   17.4   184    26.7   814.3    0.00 
 107   16:50   0.14   69.5    16   20.3   207    27.9   814.3    0.00 
 107   17:00   0.23   69.8    16   18.4   214    24.7   814.4    0.00 
 107   17:10   0.22   70.3    15   18.9   211    24.8   814.3    0.00 
 107   17:20   0.11   69.3    16   20.8   214    28.5   814.3    0.00 
 107   17:30   0.09   68.2    17   17.1   207    23.1   814.3    0.00 
 107   17:40   0.07   67.6    17   15.9   202    22.8   814.3    0.00 
 107   17:50   0.04   66.3    18   12.2   198    17.2   814.4    0.00 
 107   18:00   0.03   65.2    19   10.5   192    14.5   814.3    0.00 
 107   18:10   0.01   64.1    20    8.6   193    13.4   814.2    0.00 
 107   18:20   0.01   62.7    22    7.4   198     9.8   814.2    0.00 
 107   18:30   0.00   60.9    24    5.5   184     6.9   814.0    0.00 
 107   18:40   0.00   59.2    25    5.2   181     7.0   814.0    0.00 
 107   18:50   0.00   58.7    26    5.1   169     7.5   814.0    0.00 
 107   19:00   0.00   59.0    25    5.1   169     9.6   814.0    0.00 
 107   19:10   0.00   60.3    25    8.3   187    12.5   814.1    0.00 
 107   19:20   0.00   61.0    24    7.9   196    11.8   814.3    0.00 
 107   19:30   0.00   59.5    26    3.4   251     7.5   814.5    0.00 
 107   19:40   0.00   56.6    27    3.8   237    11.7   814.6    0.00 
 107   19:50   0.00   58.6    26    7.9   221    12.4   814.6    0.00 
 107   20:00   0.00   59.3    25   10.1   212    14.3   814.6    0.00 
 107   20:10   0.00   60.2    23   10.9   210    18.6   814.7    0.00 
 107   20:20   0.00   62.4    21   15.9   193    21.9   814.6    0.00 
 107   20:30   0.00   62.7    20   15.6   192    23.4   814.7    0.00 
 107   20:40   0.00   62.7    20   16.2   194    24.3   814.8    0.00 
 107   20:50   0.00   62.3    20   14.9   197    20.9   814.8    0.00 
 107   21:00   0.00   61.6    21   13.5   204    20.3   814.8    0.00 
 107   21:10   0.00   61.0    21   14.2   205    21.9   814.7    0.00 
 107   21:20   0.00   61.4    21   17.4   201    25.6   814.6    0.00 
 107   21:30   0.00   60.9    21   15.3   208    21.2   814.8    0.00 
 107   21:40   0.00   60.9    21   16.4   201    22.1   814.7    0.00 
 107   21:50   0.00   61.4    21   16.4   201    21.3   814.7    0.00 
 107   22:00   0.00   60.9    21   13.8   202    19.7   814.8    0.00 
 107   22:10   0.00   60.3    22   12.3   206    16.1   814.8    0.00 
 107   22:20   0.00   60.4    21   13.8   204    19.0   814.8    0.00 
 107   22:30   0.00   59.8    22   13.3   211    18.0   814.9    0.00 
 107   22:40   0.00   59.7    22   15.6   205    20.9   814.8    0.00 
 107   22:50   0.00   60.2    21   16.8   203    21.0   814.9    0.00 
 107   23:00   0.00   59.7    22   16.4   203    20.8   814.9    0.00 
 107   23:10   0.00   58.8    23   15.2   203    21.9   815.0    0.00 
 107   23:20   0.00   59.1    23   16.2   202    21.2   815.0    0.00 
 107   23:30   0.00   59.8    22   17.9   197    23.7   814.9    0.00 
 107   23:40   0.00   59.9    22   17.4   196    25.6   815.0    0.00 
 107   23:50   0.00   60.1    22   17.6   195    25.1   815.0    0.00 
 108    0:00   0.00   60.1    22   18.3   195    24.5   815.0    0.00 
 108    0:10   0.00   59.9    22   16.9   198    24.6   815.0    0.00 
 108    0:20   0.00   59.6    22   17.0   201    23.1   815.0    0.00 
 108    0:30   0.00   59.1    23   15.8   205    20.0   815.0    0.00 
 108    0:40   0.00   58.5    24   15.3   210    20.0   815.0    0.00 
 108    0:50   0.00   58.6    24   16.8   204    22.2   815.0    0.00 
 108    1:00   0.00   58.0    24   12.6   213    18.2   815.1    0.00 
 108    1:10   0.00   57.7    24   13.2   214    18.0   815.0    0.00 
 108    1:20   0.00   57.7    24   13.8   215    18.6   815.0    0.00 
 108    1:30   0.00   57.8    24   12.6   213    17.3   815.0    0.00 
 108    1:40   0.00   57.4    25   12.7   207    19.4   815.0    0.00 
 108    1:50   0.00   57.6    24   13.6   209    17.8   815.1    0.00 
 108    2:00   0.00   56.7    25   11.4   207    15.8   815.1    0.00 
 108    2:10   0.00   56.9    25   13.4   202    17.0   815.2    0.00 
 108    2:20   0.00   56.6    25   13.7   201    18.3   815.1    0.00 
 108    2:30   0.00   56.5    25   14.6   203    19.8   815.1    0.00 
 108    2:40   0.00   55.9    26   14.3   204    18.1   815.0    0.00 
 108    2:50   0.00   55.1    26   12.8   216    18.1   815.1    0.00 
 108    3:00   0.00   53.7    28   11.9   246    16.7   815.3    0.00 
 108    3:10   0.00   54.8    27   14.8   228    22.4   815.3    0.00 
 108    3:20   0.00   54.7    27   11.9   234    16.1   815.3    0.00 
 108    3:30   0.00   53.9    27   10.7   240    13.8   815.3    0.00 
 108    3:40   0.00   53.4    28   10.1   241    13.3   815.3    0.00 
 108    3:50   0.00   53.2    28   10.5   232    13.0   815.3    0.00 
 108    4:00   0.00   53.0    29   10.9   227    15.6   815.4    0.00 
 108    4:10   0.00   52.0    30    7.0   242    10.3   815.4    0.00 
 108    4:20   0.00   50.6    32    6.8   229     9.4   815.3    0.00 
 108    4:30   0.00   50.1    32    7.6   211     9.5   815.3    0.00 
 108    4:40   0.00   48.9    34    5.3   213     8.0   815.4    0.00 
 108    4:50   0.00   47.8    36    5.6   235     9.3   815.5    0.00 
 108    5:00   0.00   48.7    34    7.6   193     9.2   815.6    0.00 
 108    5:10   0.00   47.1    37    6.8   183     8.3   815.7    0.00 
 108    5:20   0.01   47.2    37    7.2   188     9.3   815.7    0.00 
 108    5:30   0.01   47.0    38    7.8   184    10.3   815.8    0.00 
 108    5:40   0.02   47.2    38    6.8   184     8.1   815.9    0.00 
 108    5:50   0.04   48.0    38    4.8   174     7.6   815.9    0.00 
 108    6:00   0.05   48.8    36    1.6   305     3.8   816.1    0.00 
 108    6:10   0.06   50.5    33    2.3   304     7.0   816.2    0.00 
 108    6:20   0.06   52.7    29    4.1   219     8.0   816.3    0.00 
 108    6:30   0.07   52.6    30    2.2   227     3.9   816.5    0.00 
 108    6:40   0.10   52.8    32    2.9   258     5.3   816.5    0.00 
 108    6:50   0.11   53.2    33    4.2   266     6.0   816.7    0.00 
 108    7:00   0.11   53.6    32    4.6   265     6.5   816.9    0.00 
 108    7:10   0.11   53.5    31    6.1   243     9.7   817.0    0.00 
 108    7:20   0.12   53.7    31    5.7   225     8.1   817.1    0.00 
 108    7:30   0.14   54.6    31    6.3   219     8.9   817.1    0.00 
 108    7:40   0.18   55.3    29    7.4   232     9.5   817.2    0.00 
 108    7:50   0.23   56.4    28    7.2   237     9.2   817.3    0.00 
 108    8:00   0.29   57.3    27    8.9   240    12.8   817.4    0.00 
 108    8:10   0.27   57.8    28   10.3   225    13.1   817.6    0.00 
 108    8:20   0.35   58.3    29    9.8   222    13.0   817.6    0.00 
 108    8:30   0.35   59.4    32    8.5   215    11.0   817.7    0.00 
 108    8:40   0.26   58.8    33    6.5   217     9.6   817.7    0.00 
 108    8:50   0.69   60.2    33    5.9   229     9.8   817.8    0.00 
 108    9:00   0.69   61.1    33    5.3   250    11.0   817.9    0.00 
 108    9:10   0.77   62.5    34    2.9   271     7.8   818.1    0.00 
 108    9:20   0.42   61.5    33    4.4   243     8.0   818.2    0.00 
 108    9:30   0.54   62.7    32    4.6   184     9.3   818.3    0.00 
 108    9:40   0.44   62.0    32    4.6   165     9.8   818.3    0.00 
 108    9:50   0.38   61.7    32    4.1   196    10.3   818.3    0.00 
 108   10:00   0.44   62.5    32    2.0   186     4.2   818.3    0.00 
 108   10:10   0.18   61.0    34    5.2   311     9.3   818.3    0.00 
 108   10:20   0.12   59.8    39    6.6   336    17.0   818.3    0.00 
 108   10:30   0.12   59.1    41    8.4   334    12.9   818.3    0.00 
 108   10:40   0.13   59.0    41    5.5   342    11.2   818.4    0.00 
 108   10:50   0.44   59.7    42    5.3   181    15.1   818.5    0.00 
 108   11:00   0.47   60.3    42    7.8   158    16.1   818.3    0.00 
 108   11:10   0.17   57.6    49    8.2    40    12.6   818.4    0.00 
 108   11:20   0.16   55.8    61   11.3   341    18.0   818.5    0.00 
 108   11:30   0.83   55.5    73   13.4   349    17.2   818.3    0.00 
 108   11:40   0.86   57.2    65   12.6   334    17.7   818.4    0.00 
 108   11:50   0.62   57.1    62    8.0   354    12.1   818.4    0.00 

Return to Steptoe Valley North graphs page.


Western Regional Climate Center,wrcc@dri.edu